Time;durP1;ratioP1;P1;durP2;ratioP2;P2;SDS_P1;SDS_P2;PMS_P1;PMS_P2;Temp;Humidity;BMP_temperature;BMP_pressure;BME280_temperature;BME280_humidity;BME280_pressure;Samples;Min_cycle;Max_cycle;Signal;HPM_P1;HPM_P2
2022/06/16 00:02:01;;;;;;;6.80;0.90;;;14.30;99.90;;;;;;5070062;28;20412;-86
2022/06/16 00:04:29;;;;;;;1.55;0.70;;;14.40;99.90;;;;;;5070383;28;20371;-83
2022/06/16 00:06:56;;;;;;;2.07;0.80;;;14.50;99.90;;;;;;5069980;28;20382;-84
2022/06/16 00:09:27;;;;;;;3.05;0.75;;;14.60;99.90;;;;;;5069898;28;20388;-82
2022/06/16 00:11:57;;;;;;;3.42;0.80;;;14.80;99.90;;;;;;5070067;28;20374;-85
2022/06/16 00:14:27;;;;;;;2.90;0.80;;;14.80;99.90;;;;;;5069822;28;20372;-82
2022/06/16 00:16:55;;;;;;;3.00;0.73;;;15.00;99.80;;;;;;5069978;28;20788;-86
2022/06/16 00:19:22;;;;;;;2.88;0.82;;;15.00;99.10;;;;;;5070286;28;20423;-88
2022/06/16 00:21:50;;;;;;;1.47;0.70;;;15.20;98.80;;;;;;5070122;28;20850;-84
2022/06/16 00:24:17;;;;;;;3.17;0.80;;;15.30;98.50;;;;;;5070007;28;20362;-87
2022/06/16 00:26:44;;;;;;;3.05;0.75;;;15.40;98.10;;;;;;5069938;28;20392;-83
2022/06/16 00:29:11;;;;;;;3.65;0.70;;;15.40;97.80;;;;;;5069861;28;20380;-86
2022/06/16 00:31:39;;;;;;;2.15;0.70;;;15.50;97.70;;;;;;5069902;28;20390;-89
2022/06/16 00:34:06;;;;;;;2.28;0.75;;;15.60;97.40;;;;;;5069619;28;20378;-82
2022/06/16 00:36:34;;;;;;;2.75;0.70;;;15.70;97.00;;;;;;5069408;28;20467;-88
2022/06/16 00:39:01;;;;;;;4.27;0.87;;;15.80;96.90;;;;;;5069624;28;20427;-84
2022/06/16 00:41:28;;;;;;;3.13;0.82;;;16.00;96.00;;;;;;5069720;28;20467;-87
2022/06/16 00:44:00;;;;;;;2.85;0.80;;;16.00;95.20;;;;;;5069854;28;20374;-81
2022/06/16 00:46:30;;;;;;;2.45;0.85;;;16.10;95.80;;;;;;5069547;28;20424;-87
2022/06/16 00:49:04;;;;;;;1.15;0.70;;;16.10;95.70;;;;;;5069479;28;20374;-87
2022/06/16 00:51:34;;;;;;;2.90;0.80;;;16.30;95.40;;;;;;5068007;28;20378;-83
2022/06/16 00:54:06;;;;;;;1.85;0.80;;;16.40;94.80;;;;;;5069685;28;20374;-82
2022/06/16 00:56:33;;;;;;;2.20;0.90;;;16.40;94.30;;;;;;5069762;28;20386;-86
2022/06/16 00:59:04;;;;;;;4.50;0.77;;;16.50;94.40;;;;;;5069094;28;20462;-88
2022/06/16 01:01:33;;;;;;;3.47;0.70;;;16.50;94.30;;;;;;5069238;28;20362;-86
2022/06/16 01:06:46;;;;;;;1.60;0.50;;;16.70;93.70;;;;;;5069712;28;20391;-82
2022/06/16 01:09:19;;;;;;;1.92;0.70;;;16.80;93.50;;;;;;5069197;28;20378;-83
2022/06/16 01:15:27;;;;;;;1.80;0.70;;;16.90;93.30;;;;;;5068931;28;20370;-82
2022/06/16 01:18:00;;;;;;;2.35;0.68;;;17.00;92.10;;;;;;5068844;28;20865;-87
2022/06/16 01:20:39;;;;;;;1.77;0.65;;;17.10;91.80;;;;;;5069240;28;20366;-81
2022/06/16 01:23:42;;;;;;;1.80;0.70;;;17.10;92.10;;;;;;5069389;28;20420;-87
2022/06/16 01:26:37;;;;;;;2.58;0.60;;;17.10;91.80;;;;;;5068775;28;20374;-87
2022/06/16 01:29:26;;;;;;;1.73;0.55;;;17.20;91.80;;;;;;5067970;28;20378;-84
2022/06/16 01:32:02;;;;;;;2.53;0.60;;;17.40;90.80;;;;;;5070015;28;20424;-82
2022/06/16 01:34:47;;;;;;;5.50;0.73;;;17.50;89.50;;;;;;5069376;28;20470;-88
2022/06/16 01:37:31;;;;;;;1.40;0.70;;;17.60;89.20;;;;;;5068537;28;20856;-85
2022/06/16 01:40:10;;;;;;;4.88;0.70;;;17.70;88.50;;;;;;5068406;28;20453;-87
2022/06/16 01:42:54;;;;;;;2.40;0.60;;;17.80;88.70;;;;;;5068390;28;20854;-85
2022/06/16 01:46:12;;;;;;;1.97;0.70;;;17.90;88.20;;;;;;5068448;28;20371;-85
2022/06/16 01:48:44;;;;;;;1.60;0.60;;;18.10;86.80;;;;;;5026542;28;20386;-87
2022/06/16 01:51:18;;;;;;;0.90;0.63;;;18.20;86.60;;;;;;5026502;28;20740;-87
2022/06/16 01:53:55;;;;;;;2.28;0.70;;;18.30;84.00;;;;;;5027094;28;20432;-87
2022/06/16 01:56:52;;;;;;;1.73;0.60;;;18.30;82.50;;;;;;5026558;28;20414;-82
2022/06/16 01:59:27;;;;;;;1.45;0.57;;;18.40;83.00;;;;;;5029586;28;20505;-84
2022/06/16 02:02:02;;;;;;;1.70;0.63;;;18.30;81.70;;;;;;5030227;28;20893;-82
2022/06/16 02:04:51;;;;;;;1.20;0.57;;;18.30;83.10;;;;;;5030338;28;20385;-84
2022/06/16 02:07:30;;;;;;;1.93;0.70;;;18.40;80.20;;;;;;5030212;28;20370;-82
2022/06/16 02:10:02;;;;;;;1.67;0.60;;;18.40;80.50;;;;;;5030148;28;20377;-84
2022/06/16 02:15:22;;;;;;;1.30;0.60;;;18.30;80.70;;;;;;5030591;28;20420;-84
2022/06/16 02:17:50;;;;;;;1.27;0.60;;;18.50;80.70;;;;;;5030319;28;20409;-86
2022/06/16 02:20:17;;;;;;;2.08;0.50;;;18.80;79.40;;;;;;5030015;28;20377;-87
2022/06/16 02:22:44;;;;;;;2.72;0.50;;;19.00;77.00;;;;;;5030073;28;20435;-83
2022/06/16 02:25:11;;;;;;;2.70;0.60;;;19.00;74.70;;;;;;5067809;28;20378;-84
2022/06/16 02:27:38;;;;;;;0.68;0.50;;;18.90;75.60;;;;;;5071703;28;20382;-82
2022/06/16 02:30:06;;;;;;;2.33;0.60;;;18.70;75.90;;;;;;5071700;28;20382;-82
2022/06/16 02:32:37;;;;;;;2.03;0.60;;;18.80;79.40;;;;;;5071671;28;20797;-83
2022/06/16 02:35:22;;;;;;;2.38;0.50;;;18.90;77.80;;;;;;5071924;28;20840;-82
2022/06/16 02:38:06;;;;;;;2.38;0.60;;;18.90;77.60;;;;;;5071918;28;20476;-83
2022/06/16 02:40:57;;;;;;;2.22;0.50;;;18.90;76.10;;;;;;5071475;28;20374;-81
2022/06/16 02:43:39;;;;;;;1.52;0.60;;;18.80;75.60;;;;;;5070120;28;20389;-84
2022/06/16 02:46:25;;;;;;;1.27;0.52;;;18.70;77.20;;;;;;5072047;28;20389;-86
2022/06/16 02:49:03;;;;;;;2.65;0.63;;;18.80;76.50;;;;;;5071322;28;20374;-88
2022/06/16 02:51:41;;;;;;;2.35;0.60;;;18.90;77.90;;;;;;5070069;28;20382;-87
2022/06/16 02:54:21;;;;;;;2.03;0.60;;;19.10;77.10;;;;;;5071309;28;20444;-85
2022/06/16 02:56:56;;;;;;;1.30;0.50;;;19.30;78.80;;;;;;5071088;28;20459;-82
2022/06/16 02:59:36;;;;;;;1.80;0.60;;;19.50;75.70;;;;;;5071230;28;20468;-84
2022/06/16 03:02:09;;;;;;;4.18;0.60;;;19.50;75.10;;;;;;5071060;28;20362;-84
2022/06/16 03:04:40;;;;;;;2.17;0.60;;;19.40;74.60;;;;;;5071223;28;20391;-86
2022/06/16 03:07:10;;;;;;;0.93;0.57;;;19.50;75.70;;;;;;5071198;28;20445;-85
2022/06/16 03:09:37;;;;;;;1.20;0.60;;;19.50;74.40;;;;;;5070836;28;20877;-86
2022/06/16 03:12:07;;;;;;;1.73;0.65;;;19.50;77.10;;;;;;5071111;28;20416;-85
2022/06/16 03:14:34;;;;;;;2.17;0.70;;;19.60;77.10;;;;;;5070912;28;20707;-80
2022/06/16 03:17:02;;;;;;;1.38;0.50;;;19.80;76.00;;;;;;5070683;28;20398;-85
2022/06/16 03:19:29;;;;;;;1.57;0.70;;;20.10;74.80;;;;;;5071155;28;20794;-87
2022/06/16 03:21:57;;;;;;;2.00;0.60;;;20.40;73.70;;;;;;5071103;28;20448;-86
2022/06/16 03:24:24;;;;;;;1.02;0.52;;;20.70;72.10;;;;;;5071024;28;20419;-83
2022/06/16 03:26:52;;;;;;;1.55;0.50;;;20.90;69.80;;;;;;5070965;28;20465;-83
2022/06/16 03:29:19;;;;;;;1.52;0.50;;;21.00;67.80;;;;;;5077869;28;20370;-83
2022/06/16 03:31:46;;;;;;;1.80;0.40;;;21.20;67.10;;;;;;5079116;28;20382;-85
2022/06/16 03:34:13;;;;;;;2.00;0.45;;;21.10;66.80;;;;;;5075080;28;20371;-83
2022/06/16 03:36:41;;;;;;;1.10;0.60;;;21.10;67.30;;;;;;5076714;28;20760;-79
2022/06/16 03:39:08;;;;;;;0.95;0.50;;;21.20;66.50;;;;;;5072517;28;20370;-87
2022/06/16 03:41:35;;;;;;;2.93;0.80;;;21.30;66.40;;;;;;5072347;28;20442;-85
2022/06/16 03:44:03;;;;;;;1.35;0.60;;;21.40;65.90;;;;;;5071538;28;20814;-85
2022/06/16 03:46:30;;;;;;;2.20;0.50;;;21.20;66.40;;;;;;5071044;28;20451;-84
2022/06/16 03:48:57;;;;;;;2.70;0.70;;;21.10;65.40;;;;;;5071138;28;20373;-84
2022/06/16 03:51:24;;;;;;;2.30;0.77;;;21.10;67.40;;;;;;5070493;28;20377;-83
2022/06/16 03:53:51;;;;;;;2.40;0.52;;;20.80;68.00;;;;;;5070662;28;20410;-87
2022/06/16 03:56:19;;;;;;;1.60;0.50;;;20.60;67.90;;;;;;5070623;28;20401;-84
2022/06/16 03:58:50;;;;;;;1.13;0.40;;;20.20;68.90;;;;;;5070796;28;20382;-83
2022/06/16 04:01:17;;;;;;;0.60;0.40;;;19.90;68.20;;;;;;5066927;28;20382;-82
2022/06/16 04:04:02;;;;;;;1.38;0.47;;;19.70;69.30;;;;;;5070141;28;20384;-86
2022/06/16 04:06:35;;;;;;;0.85;0.40;;;19.50;70.00;;;;;;5070473;28;20370;-83
2022/06/16 04:09:05;;;;;;;1.35;0.50;;;19.30;70.50;;;;;;5070420;28;20779;-86
2022/06/16 04:11:32;;;;;;;1.00;0.50;;;19.20;70.30;;;;;;5069963;28;20370;-84
2022/06/16 04:14:07;;;;;;;0.82;0.40;;;19.20;69.70;;;;;;5070040;28;20716;-85
2022/06/16 04:16:43;;;;;;;1.48;0.40;;;19.20;69.60;;;;;;5069995;28;20386;-82
2022/06/16 04:19:14;;;;;;;0.90;0.30;;;19.30;69.30;;;;;;5070616;28;20377;-82
2022/06/16 04:21:44;;;;;;;0.52;0.25;;;19.50;69.40;;;;;;5068868;28;20373;-87
2022/06/16 04:24:12;;;;;;;1.67;0.30;;;19.50;69.20;;;;;;5069842;28;20387;-83
2022/06/16 04:26:40;;;;;;;1.05;0.30;;;19.60;68.20;;;;;;5069742;28;20370;-86
2022/06/16 04:29:09;;;;;;;0.28;0.20;;;19.50;67.60;;;;;;5070069;28;20375;-88
2022/06/16 04:31:37;;;;;;;1.20;0.40;;;19.40;67.40;;;;;;5069708;28;20883;-86
2022/06/16 04:34:04;;;;;;;0.50;0.32;;;19.30;67.80;;;;;;5069622;28;20371;-86
2022/06/16 04:36:32;;;;;;;1.65;0.22;;;19.30;68.40;;;;;;5069454;28;20402;-86
2022/06/16 04:39:00;;;;;;;0.60;0.30;;;19.20;69.50;;;;;;5069486;28;20402;-82
2022/06/16 04:41:28;;;;;;;1.00;0.30;;;19.20;70.00;;;;;;5069743;28;20374;-81
2022/06/16 04:43:55;;;;;;;0.50;0.30;;;19.30;68.50;;;;;;5069422;28;20838;-85
2022/06/16 04:46:24;;;;;;;0.40;0.30;;;19.40;68.60;;;;;;5069882;28;20420;-82
2022/06/16 04:48:52;;;;;;;1.60;0.45;;;19.30;69.00;;;;;;5069909;28;20450;-87
2022/06/16 04:51:19;;;;;;;12.25;11.00;;;19.40;69.20;;;;;;5069528;28;20781;-82
2022/06/16 04:53:46;;;;;;;7.75;6.95;;;19.40;69.00;;;;;;5069370;28;20377;-85
2022/06/16 04:56:13;;;;;;;5.00;4.57;;;19.50;68.40;;;;;;5069116;28;20403;-80
2022/06/16 04:58:41;;;;;;;0.82;0.63;;;19.40;68.60;;;;;;5068930;28;20409;-87
2022/06/16 05:01:08;;;;;;;2.13;1.63;;;19.40;68.70;;;;;;5068895;28;20362;-85
2022/06/16 05:03:35;;;;;;;1.33;1.20;;;19.30;69.50;;;;;;5069237;28;20378;-85
2022/06/16 05:06:02;;;;;;;1.10;1.00;;;19.40;69.40;;;;;;5069089;28;20366;-81
2022/06/16 05:08:30;;;;;;;0.63;0.50;;;19.40;69.60;;;;;;5068835;28;20374;-81
2022/06/16 05:10:57;;;;;;;1.20;0.43;;;19.40;68.80;;;;;;5068878;28;20382;-85
2022/06/16 05:13:24;;;;;;;1.85;0.70;;;19.40;69.10;;;;;;5068888;28;20413;-84
2022/06/16 05:15:54;;;;;;;0.57;0.40;;;19.40;69.30;;;;;;5068701;28;20417;-84
2022/06/16 05:18:21;;;;;;;1.17;0.50;;;19.30;69.20;;;;;;5068796;28;20384;-86
2022/06/16 05:20:49;;;;;;;0.95;0.50;;;19.20;69.90;;;;;;5068781;28;20370;-85
2022/06/16 05:23:16;;;;;;;0.80;0.40;;;19.20;68.80;;;;;;5068710;28;20401;-86
2022/06/16 05:25:43;;;;;;;0.63;0.60;;;19.20;68.80;;;;;;5068724;28;20376;-85
2022/06/16 05:28:11;;;;;;;1.05;0.70;;;19.20;68.80;;;;;;5068649;28;20396;-84
2022/06/16 05:30:38;;;;;;;1.15;0.47;;;19.00;69.40;;;;;;5068905;28;20923;-86
2022/06/16 05:33:05;;;;;;;1.30;0.60;;;19.00;69.60;;;;;;5068463;28;20370;-83
2022/06/16 05:35:33;;;;;;;0.63;0.63;;;19.00;69.70;;;;;;5068285;28;20374;-81
2022/06/16 05:38:00;;;;;;;1.42;0.63;;;19.00;69.80;;;;;;5068801;28;20398;-85
2022/06/16 05:40:27;;;;;;;1.83;0.60;;;18.90;70.80;;;;;;5068536;28;21093;-88
2022/06/16 05:42:54;;;;;;;1.45;0.70;;;19.00;70.80;;;;;;5068455;28;20382;-87
2022/06/16 05:45:21;;;;;;;1.63;0.60;;;19.00;70.70;;;;;;5068278;28;20487;-86
2022/06/16 05:47:49;;;;;;;2.58;0.70;;;19.10;70.20;;;;;;5068555;28;20897;-82
2022/06/16 05:50:18;;;;;;;3.25;0.80;;;19.20;71.40;;;;;;5067269;28;20454;-87
2022/06/16 05:52:46;;;;;;;0.80;0.50;;;19.30;70.80;;;;;;5069193;28;20396;-93
2022/06/16 05:55:14;;;;;;;1.20;0.50;;;19.20;70.60;;;;;;5069855;28;20378;-93
2022/06/16 05:57:41;;;;;;;1.50;0.40;;;19.10;70.70;;;;;;5069459;28;20410;-87
2022/06/16 06:00:09;;;;;;;1.37;0.50;;;19.00;71.30;;;;;;5069141;28;20381;-93
2022/06/16 06:02:37;;;;;;;0.93;0.60;;;18.90;71.50;;;;;;5068016;28;20892;-92
2022/06/16 06:05:05;;;;;;;2.13;0.55;;;18.80;72.70;;;;;;5069153;28;20386;-91
2022/06/16 06:16:25;;;;;;;1.63;0.60;;;18.70;72.60;;;;;;5069220;28;20460;-92
2022/06/16 06:18:35;;;;;;;6.03;1.70;;;18.70;74.40;;;;;;5069202;28;20374;-93
2022/06/16 06:21:02;;;;;;;8.55;2.15;;;18.60;73.80;;;;;;5068325;28;20938;-89
2022/06/16 06:23:29;;;;;;;6.63;2.00;;;18.40;74.40;;;;;;5070032;28;20381;-92
2022/06/16 06:25:57;;;;;;;2.20;0.70;;;18.30;74.30;;;;;;5069047;28;20416;-92
2022/06/16 06:28:25;;;;;;;1.38;0.70;;;18.40;75.40;;;;;;5068244;28;20754;-84
2022/06/16 06:30:52;;;;;;;3.10;1.10;;;18.30;76.30;;;;;;5070697;28;20389;-85
2022/06/16 06:33:19;;;;;;;1.67;0.90;;;18.20;76.60;;;;;;5069311;28;20447;-95
2022/06/16 06:35:46;;;;;;;3.65;0.80;;;18.20;77.20;;;;;;5069018;28;20383;-85
2022/06/16 06:38:15;;;;;;;3.42;1.00;;;18.10;77.50;;;;;;5069629;28;20405;-92
2022/06/16 06:40:42;;;;;;;3.45;1.90;;;18.00;78.80;;;;;;5069409;28;20362;-93
2022/06/16 06:43:09;;;;;;;2.33;1.30;;;17.90;79.20;;;;;;5069413;28;20377;-84
2022/06/16 06:45:37;;;;;;;2.63;1.35;;;17.80;79.80;;;;;;5072195;28;20382;-93
2022/06/16 06:48:07;;;;;;;4.30;1.10;;;17.70;80.60;;;;;;5072715;28;20405;-92
2022/06/16 06:50:40;;;;;;;6.95;1.60;;;17.60;79.10;;;;;;5072511;28;20362;-89
2022/06/16 06:53:09;;;;;;;7.90;2.20;;;17.70;78.10;;;;;;5072597;28;20383;-93
2022/06/16 06:55:40;;;;;;;8.13;2.50;;;17.60;79.10;;;;;;5072270;28;20381;-94
2022/06/16 06:58:09;;;;;;;7.10;2.40;;;17.60;78.50;;;;;;5072978;28;20426;-91
2022/06/16 07:00:36;;;;;;;8.63;2.27;;;17.40;79.20;;;;;;5071677;28;20359;-91
2022/06/16 07:03:03;;;;;;;12.10;2.20;;;17.30;78.10;;;;;;5073563;28;20388;-88
2022/06/16 07:05:30;;;;;;;4.93;1.70;;;17.30;79.10;;;;;;5072168;28;20374;-84
2022/06/16 07:07:58;;;;;;;5.45;1.20;;;17.20;78.70;;;;;;5073302;28;20375;-86
2022/06/16 07:10:26;;;;;;;2.85;1.48;;;17.20;79.20;;;;;;5073348;28;20412;-92
2022/06/16 07:12:53;;;;;;;2.03;0.93;;;17.10;81.20;;;;;;5072272;28;20382;-89
2022/06/16 07:15:20;;;;;;;1.65;1.20;;;17.00;82.40;;;;;;5073327;28;20373;-86
2022/06/16 07:17:47;;;;;;;3.80;1.20;;;17.00;82.40;;;;;;5072133;28;20735;-87
2022/06/16 07:20:16;;;;;;;3.13;1.30;;;16.90;82.80;;;;;;5071723;28;20370;-89
2022/06/16 07:22:46;;;;;;;3.50;1.35;;;16.90;83.80;;;;;;5070949;28;20382;-81
2022/06/16 07:25:15;;;;;;;4.72;1.40;;;16.80;85.10;;;;;;5070835;28;20378;-86
2022/06/16 07:27:43;;;;;;;3.90;1.40;;;16.60;86.60;;;;;;5070741;28;20374;-88
2022/06/16 07:30:36;;;;;;;4.70;1.40;;;16.50;88.20;;;;;;5070836;28;20367;-83
2022/06/16 07:33:02;;;;;;;5.35;1.50;;;16.40;89.40;;;;;;5070468;28;20394;-87
2022/06/16 07:35:29;;;;;;;3.63;1.38;;;16.40;89.60;;;;;;5070539;28;20923;-85
2022/06/16 07:37:56;;;;;;;3.80;1.40;;;16.30;90.10;;;;;;5071055;28;20402;-90
2022/06/16 07:40:24;;;;;;;3.70;1.50;;;16.30;90.20;;;;;;5070992;28;20469;-82
2022/06/16 07:42:56;;;;;;;3.65;1.60;;;16.30;90.20;;;;;;5071205;28;20465;-82
2022/06/16 07:45:28;;;;;;;6.78;2.40;;;16.30;90.70;;;;;;5070528;28;20375;-88
2022/06/16 07:47:57;;;;;;;5.18;2.50;;;16.20;90.50;;;;;;5070416;28;20421;-87
2022/06/16 07:50:25;;;;;;;6.00;2.75;;;16.10;91.00;;;;;;5071416;28;20374;-83
2022/06/16 07:52:52;;;;;;;4.65;2.35;;;16.10;91.30;;;;;;5070382;28;20374;-84
2022/06/16 07:55:22;;;;;;;5.68;1.95;;;16.10;91.30;;;;;;5074555;28;20382;-77
2022/06/16 07:57:51;;;;;;;8.10;3.20;;;16.10;91.00;;;;;;5071193;28;20431;-83
2022/06/16 08:00:35;;;;;;;21.05;5.50;;;16.10;90.80;;;;;;5070927;28;20388;-91
2022/06/16 08:03:03;;;;;;;13.83;3.57;;;16.10;91.00;;;;;;5070827;28;20707;-92
2022/06/16 08:05:30;;;;;;;7.18;1.90;;;16.10;91.30;;;;;;5070089;28;20380;-87
2022/06/16 08:07:58;;;;;;;4.35;1.20;;;16.20;90.90;;;;;;5070632;28;20771;-88
2022/06/16 08:10:28;;;;;;;2.45;1.15;;;16.20;90.50;;;;;;5070513;28;20387;-86
2022/06/16 08:12:56;;;;;;;2.80;1.53;;;16.20;90.40;;;;;;5069928;28;20443;-83
2022/06/16 08:15:23;;;;;;;3.20;1.53;;;16.10;90.50;;;;;;5070971;28;20397;-86
2022/06/16 08:17:53;;;;;;;2.53;1.60;;;16.00;91.00;;;;;;5070825;28;20409;-84
2022/06/16 08:20:21;;;;;;;3.00;1.67;;;15.80;92.00;;;;;;5070754;28;20362;-90
2022/06/16 08:22:48;;;;;;;4.22;1.52;;;15.60;92.50;;;;;;5070357;28;20436;-86
2022/06/16 08:25:19;;;;;;;1.70;1.40;;;15.40;93.00;;;;;;5069823;28;20450;-82
2022/06/16 08:27:49;;;;;;;1.50;1.30;;;15.20;93.80;;;;;;5070063;28;20842;-86
2022/06/16 08:30:18;;;;;;;2.63;1.27;;;15.00;94.60;;;;;;5071456;28;20394;-86
2022/06/16 08:32:46;;;;;;;3.33;1.60;;;14.90;95.30;;;;;;5070616;28;20386;-86
2022/06/16 08:35:13;;;;;;;1.92;1.60;;;14.70;95.70;;;;;;5072482;28;20398;-86
2022/06/16 08:37:41;;;;;;;3.72;1.80;;;14.70;96.10;;;;;;5069792;28;20410;-85
2022/06/16 08:40:08;;;;;;;2.17;1.70;;;14.60;96.80;;;;;;5069209;28;20374;-84
2022/06/16 08:43:25;;;;;;;3.08;1.98;;;14.50;97.00;;;;;;5069124;28;20432;-89
2022/06/16 08:45:59;;;;;;;3.85;2.22;;;14.30;97.60;;;;;;5010796;28;20938;-83
2022/06/16 08:48:30;;;;;;;5.00;3.20;;;14.10;98.50;;;;;;5027878;28;20996;-85
2022/06/16 08:51:05;;;;;;;4.72;2.90;;;13.90;98.90;;;;;;5029301;28;20381;-83
2022/06/16 08:53:35;;;;;;;3.55;2.08;;;13.70;99.60;;;;;;5031155;28;20460;-84
2022/06/16 08:56:08;;;;;;;3.10;1.60;;;13.60;99.90;;;;;;5028152;28;20384;-85
2022/06/16 08:58:50;;;;;;;3.23;1.90;;;13.50;99.90;;;;;;5027647;28;20373;-82
2022/06/16 09:01:25;;;;;;;5.90;2.90;;;13.50;99.90;;;;;;5029935;28;20431;-84
2022/06/16 09:03:57;;;;;;;6.28;3.53;;;13.60;99.90;;;;;;5028155;28;20377;-86
2022/06/16 09:06:29;;;;;;;9.43;5.07;;;13.70;99.90;;;;;;5026972;28;20473;-82
2022/06/16 09:09:09;;;;;;;3.17;2.60;;;13.80;99.90;;;;;;5027812;28;20378;-89
2022/06/16 09:11:41;;;;;;;3.85;2.63;;;13.90;99.90;;;;;;5028468;28;20691;-90
2022/06/16 09:17:55;;;;;;;3.80;3.20;;;14.10;99.50;;;;;;5065236;28;20464;-90
2022/06/16 09:20:44;;;;;;;5.07;2.70;;;14.00;99.70;;;;;;5070454;28;20394;-90
2022/06/16 09:23:44;;;;;;;4.82;2.97;;;14.00;99.10;;;;;;5071498;28;20465;-84
2022/06/16 09:26:19;;;;;;;5.23;3.50;;;14.00;99.20;;;;;;5070757;28;20395;-87
2022/06/16 09:29:06;;;;;;;10.93;9.10;;;13.90;99.20;;;;;;5071406;28;20889;-82
2022/06/16 09:31:43;;;;;;;7.22;6.43;;;13.80;99.30;;;;;;5073038;28;20727;-87
2022/06/16 09:34:21;;;;;;;6.43;4.17;;;13.60;99.30;;;;;;5070901;28;20373;-89
2022/06/16 09:37:01;;;;;;;5.05;3.08;;;13.30;99.90;;;;;;5070262;28;20390;-84
2022/06/16 09:39:44;;;;;;;3.72;2.65;;;13.10;99.90;;;;;;5071705;28;20373;-86
2022/06/16 09:42:32;;;;;;;3.83;2.03;;;12.80;99.90;;;;;;5070044;28;20374;-89
2022/06/16 09:45:10;;;;;;;3.05;2.15;;;12.50;99.90;;;;;;5070025;28;20385;-88
2022/06/16 09:47:50;;;;;;;3.88;2.00;;;12.30;99.90;;;;;;5069996;28;20387;-85
2022/06/16 09:50:27;;;;;;;2.08;1.60;;;12.10;99.90;;;;;;5069162;28;20366;-88
2022/06/16 09:53:03;;;;;;;2.50;1.60;;;12.00;99.90;;;;;;5069129;28;20714;-82
2022/06/16 09:55:58;;;;;;;4.00;2.25;;;11.90;99.90;;;;;;5069013;28;20370;-90
2022/06/16 09:58:38;;;;;;;12.23;3.67;;;11.80;99.90;;;;;;5063263;28;20833;-88
2022/06/16 10:01:09;;;;;;;48.67;21.00;;;11.80;99.90;;;;;;5068891;28;20402;-89
2022/06/16 10:04:00;;;;;;;10.65;4.28;;;11.70;99.90;;;;;;5068739;28;20374;-89
2022/06/16 10:07:10;;;;;;;10.30;3.17;;;11.90;99.90;;;;;;5069114;28;20373;-89
2022/06/16 10:09:59;;;;;;;8.87;2.70;;;12.20;99.90;;;;;;5026367;28;20884;-87
2022/06/16 10:12:48;;;;;;;8.80;2.55;;;12.30;99.90;;;;;;5027278;28;20453;-86
2022/06/16 10:15:23;;;;;;;6.63;1.90;;;12.30;99.90;;;;;;5026310;28;20384;-85
2022/06/16 10:17:51;;;;;;;4.72;2.10;;;12.20;99.90;;;;;;5026391;28;20832;-88
2022/06/16 10:20:21;;;;;;;5.35;2.20;;;12.20;99.90;;;;;;5029387;28;20903;-84
2022/06/16 10:23:14;;;;;;;5.18;1.80;;;12.00;99.90;;;;;;5030390;28;20499;-85
2022/06/16 10:25:48;;;;;;;6.07;2.15;;;11.80;99.90;;;;;;5013676;28;20756;-86
2022/06/16 10:28:27;;;;;;;4.65;1.90;;;11.70;99.90;;;;;;5030432;28;20396;-87
2022/06/16 10:30:54;;;;;;;4.20;1.97;;;11.60;99.90;;;;;;5030003;28;20435;-85
2022/06/16 10:33:26;;;;;;;4.53;2.00;;;11.50;99.90;;;;;;5030036;28;20432;-86
2022/06/16 10:36:13;;;;;;;5.28;2.40;;;11.30;99.90;;;;;;5022050;28;20397;-89
2022/06/16 10:38:43;;;;;;;6.10;2.20;;;11.20;99.90;;;;;;4991084;28;20916;-85
2022/06/16 10:41:34;;;;;;;4.95;2.10;;;11.00;99.90;;;;;;5042915;28;20376;-84
2022/06/16 10:44:04;;;;;;;6.03;2.20;;;10.90;99.90;;;;;;5052133;28;20781;-84
2022/06/16 10:46:45;;;;;;;3.65;2.00;;;10.70;99.90;;;;;;5052248;28;20482;-91
2022/06/16 10:49:33;;;;;;;4.88;1.90;;;10.60;99.90;;;;;;5054551;28;20426;-92
2022/06/16 10:52:14;;;;;;;3.90;2.10;;;10.60;99.90;;;;;;5052008;28;20375;-87
2022/06/16 10:54:56;;;;;;;3.58;2.25;;;10.50;99.90;;;;;;5051674;28;20372;-87
2022/06/16 10:57:26;;;;;;;4.65;2.50;;;10.50;99.90;;;;;;5051344;28;20461;-84
2022/06/16 11:00:16;;;;;;;4.17;3.10;;;10.50;99.90;;;;;;5051707;28;20359;-84
2022/06/16 11:03:04;;;;;;;14.23;12.55;;;10.40;99.90;;;;;;5051895;28;20383;-85
2022/06/16 11:05:57;;;;;;;12.07;9.45;;;10.30;99.90;;;;;;5052626;28;20368;-87
2022/06/16 11:08:31;;;;;;;9.20;7.03;;;10.30;99.90;;;;;;5053093;28;20927;-85
2022/06/16 11:11:00;;;;;;;23.40;20.80;;;10.30;99.90;;;;;;5053915;28;20413;-84
2022/06/16 11:13:44;;;;;;;22.03;17.93;;;10.30;99.90;;;;;;5054536;28;20379;-84
2022/06/16 11:16:30;;;;;;;22.40;18.43;;;10.20;99.90;;;;;;5053571;28;20458;-84
2022/06/16 11:19:00;;;;;;;18.05;15.07;;;10.20;99.90;;;;;;5054269;28;20913;-86
2022/06/16 11:21:32;;;;;;;16.30;13.52;;;10.20;99.90;;;;;;5053609;28;20375;-87
2022/06/16 11:24:03;;;;;;;21.10;14.55;;;10.20;99.90;;;;;;5053420;28;20409;-84
2022/06/16 11:26:36;;;;;;;14.73;12.48;;;10.10;99.90;;;;;;5053901;28;20367;-84
2022/06/16 11:29:12;;;;;;;17.97;13.80;;;10.10;99.90;;;;;;5054166;28;20380;-85
2022/06/16 11:31:46;;;;;;;17.67;12.95;;;10.00;99.90;;;;;;5053785;28;20372;-84
2022/06/16 11:34:19;;;;;;;16.38;12.68;;;10.00;99.90;;;;;;5053784;28;20373;-85
2022/06/16 11:36:58;;;;;;;15.97;12.17;;;9.90;99.90;;;;;;5064337;28;20414;-87
2022/06/16 11:39:28;;;;;;;14.80;11.20;;;9.80;99.90;;;;;;5074856;28;20381;-84
2022/06/16 11:41:59;;;;;;;11.38;8.05;;;9.80;99.90;;;;;;5073421;28;20366;-84
2022/06/16 11:44:44;;;;;;;9.55;7.57;;;9.80;99.90;;;;;;5072257;28;20363;-84
2022/06/16 11:47:22;;;;;;;12.82;8.35;;;9.80;99.90;;;;;;5071102;28;20397;-83
2022/06/16 11:50:16;;;;;;;9.73;6.15;;;9.70;99.90;;;;;;5071349;28;20409;-85
2022/06/16 11:52:46;;;;;;;7.53;5.40;;;9.70;99.90;;;;;;5072560;28;20381;-87
2022/06/16 11:55:19;;;;;;;6.80;4.67;;;9.80;99.90;;;;;;5071426;28;20703;-85
2022/06/16 11:57:52;;;;;;;5.90;4.80;;;9.70;99.90;;;;;;5071030;28;20772;-83
2022/06/16 12:00:33;;;;;;;6.80;4.85;;;9.70;99.90;;;;;;5070849;28;20446;-84
2022/06/16 12:03:11;;;;;;;6.57;4.40;;;9.60;99.90;;;;;;5071952;28;20773;-83
2022/06/16 12:05:51;;;;;;;7.15;4.80;;;9.60;99.90;;;;;;5070619;28;20363;-83
2022/06/16 12:08:21;;;;;;;7.78;5.40;;;9.60;99.90;;;;;;5070950;28;20374;-86
2022/06/16 12:10:48;;;;;;;7.53;5.43;;;9.50;99.90;;;;;;5071178;28;20387;-83
2022/06/16 12:13:31;;;;;;;9.90;6.30;;;9.40;99.90;;;;;;5070383;28;20380;-83
2022/06/16 12:16:30;;;;;;;6.70;5.53;;;9.30;99.90;;;;;;5070543;28;20398;-83
2022/06/16 12:19:30;;;;;;;8.50;5.20;;;9.30;99.90;;;;;;5070672;28;20711;-83
2022/06/16 12:22:38;;;;;;;7.60;5.50;;;9.20;99.90;;;;;;5070187;28;20358;-83
2022/06/16 12:25:26;;;;;;;8.88;6.00;;;9.20;99.90;;;;;;5069993;28;20365;-84
2022/06/16 12:28:12;;;;;;;7.30;5.40;;;9.10;99.90;;;;;;5070491;28;20366;-84
2022/06/16 12:30:42;;;;;;;7.10;5.40;;;9.10;99.90;;;;;;5070291;28;20366;-84
2022/06/16 12:33:22;;;;;;;7.13;5.43;;;9.10;99.90;;;;;;5070676;28;20401;-83
2022/06/16 12:36:11;;;;;;;6.93;4.77;;;9.10;99.90;;;;;;5070316;28;20876;-83
2022/06/16 12:38:47;;;;;;;6.78;4.43;;;9.10;99.90;;;;;;5069759;28;20402;-83
2022/06/16 12:41:39;;;;;;;7.95;4.35;;;9.10;99.90;;;;;;5069028;28;20362;-89
2022/06/16 12:44:28;;;;;;;6.80;4.20;;;9.00;99.90;;;;;;5069448;28;20370;-84
2022/06/16 12:47:09;;;;;;;6.82;3.95;;;9.10;99.90;;;;;;5069525;28;20370;-84
2022/06/16 12:49:52;;;;;;;6.53;3.33;;;9.10;99.90;;;;;;5069543;28;20457;-84
2022/06/16 12:52:42;;;;;;;5.87;3.00;;;9.00;99.90;;;;;;5068381;28;20483;-84
2022/06/16 12:55:12;;;;;;;4.72;3.10;;;9.00;99.90;;;;;;5069610;28;20462;-89
2022/06/16 12:57:58;;;;;;;5.28;3.33;;;9.00;99.90;;;;;;5069715;28;20469;-84
2022/06/16 13:00:30;;;;;;;4.60;3.10;;;8.90;99.90;;;;;;5069649;28;20358;-84
2022/06/16 13:03:39;;;;;;;4.63;3.17;;;8.80;99.90;;;;;;5069585;28;20376;-84
2022/06/16 13:06:08;;;;;;;3.53;2.90;;;8.80;99.90;;;;;;5027807;28;20455;-87
2022/06/16 13:08:40;;;;;;;3.92;3.00;;;8.70;99.90;;;;;;5027153;28;20420;-85
2022/06/16 13:11:16;;;;;;;3.08;2.70;;;8.70;99.90;;;;;;5027562;28;20382;-87
2022/06/16 13:13:53;;;;;;;5.40;3.20;;;8.70;99.90;;;;;;5027955;28;20394;-88
2022/06/16 13:16:25;;;;;;;3.03;2.40;;;8.60;99.90;;;;;;5028332;28;20377;-85
2022/06/16 13:19:19;;;;;;;3.50;2.70;;;8.80;99.90;;;;;;5027510;28;20489;-89
2022/06/16 13:21:56;;;;;;;3.90;2.60;;;8.80;99.90;;;;;;5027700;28;20777;-86
2022/06/16 13:25:13;;;;;;;;;;;;;;;;;;;;;
2022/06/16 13:27:40;;;;;;;2.88;2.50;;;8.70;99.90;;;;;;5007403;28;20376;-87
2022/06/16 13:30:07;;;;;;;3.28;2.50;;;8.60;99.90;;;;;;5007562;28;20474;-86
2022/06/16 13:33:03;;;;;;;3.50;2.60;;;8.60;99.90;;;;;;5007762;28;20390;-88
2022/06/16 13:35:41;;;;;;;2.72;2.40;;;8.50;99.90;;;;;;4999443;28;20398;-85
2022/06/16 13:38:11;;;;;;;3.50;2.42;;;8.50;99.90;;;;;;5010442;28;20480;-89
2022/06/16 13:40:44;;;;;;;3.30;2.72;;;8.50;99.90;;;;;;5026959;28;20746;-88
2022/06/16 13:43:16;;;;;;;4.22;2.20;;;8.50;99.90;;;;;;5027212;28;20385;-86
2022/06/16 13:46:01;;;;;;;3.67;2.40;;;8.40;99.90;;;;;;5026885;28;20393;-87